Time;durP1;ratioP1;P1;durP2;ratioP2;P2;SDS_P1;SDS_P2;PMS_P1;PMS_P2;Temp;Humidity;BMP_temperature;BMP_pressure;BME280_temperature;BME280_humidity;BME280_pressure;Samples;Min_cycle;Max_cycle;Signal;HPM_P1;HPM_P2
2021/04/26 00:00:49;;;;;;;1.10;0.57;;;3.70;99.90;;;;;;5056022;28;20700;-83
2021/04/26 00:03:15;;;;;;;0.47;0.47;;;3.70;99.90;;;;;;5057136;28;20312;-83
2021/04/26 00:05:41;;;;;;;0.53;0.53;;;3.70;99.90;;;;;;5070106;28;20220;-83
2021/04/26 00:08:07;;;;;;;0.40;0.40;;;3.50;99.90;;;;;;5038880;28;20189;-83
2021/04/26 00:10:33;;;;;;;0.97;0.40;;;3.50;99.90;;;;;;5037327;28;20236;-85
2021/04/26 00:13:00;;;;;;;0.60;0.60;;;3.50;99.90;;;;;;5054956;28;20233;-82
2021/04/26 00:15:28;;;;;;;0.30;0.30;;;3.50;99.90;;;;;;5055691;28;20232;-81
2021/04/26 00:17:54;;;;;;;0.33;0.33;;;3.50;99.90;;;;;;5073022;28;20228;-83
2021/04/26 00:20:27;;;;;;;0.57;0.57;;;3.50;99.90;;;;;;5055377;28;20221;-83
2021/04/26 00:22:53;;;;;;;1.03;0.93;;;3.50;99.90;;;;;;5052856;28;20207;-83
2021/04/26 00:25:19;;;;;;;0.60;0.60;;;3.50;99.90;;;;;;5048570;28;20229;-82
2021/04/26 00:27:45;;;;;;;0.50;0.50;;;3.40;99.90;;;;;;5051717;28;20232;-83
2021/04/26 00:30:14;;;;;;;0.50;0.50;;;3.40;99.90;;;;;;5053237;28;20716;-82
2021/04/26 00:32:40;;;;;;;0.40;0.40;;;3.40;99.90;;;;;;5055242;28;20227;-82
2021/04/26 00:35:07;;;;;;;0.40;0.40;;;3.40;99.90;;;;;;5071068;28;20188;-83
2021/04/26 00:37:33;;;;;;;0.57;0.57;;;3.30;99.90;;;;;;5055643;28;20231;-84
2021/04/26 00:39:59;;;;;;;4.27;0.87;;;3.30;99.90;;;;;;5054652;28;20605;-81
2021/04/26 00:42:24;;;;;;;0.50;0.50;;;3.30;99.90;;;;;;5038346;28;20700;-82
2021/04/26 00:44:50;;;;;;;1.50;0.70;;;3.30;99.90;;;;;;5037606;28;20248;-82
2021/04/26 00:47:16;;;;;;;0.50;0.50;;;3.20;99.90;;;;;;5017746;28;20193;-82
2021/04/26 00:49:42;;;;;;;0.40;0.40;;;3.10;99.90;;;;;;5051763;28;20243;-83
2021/04/26 00:52:08;;;;;;;0.60;0.60;;;3.00;99.90;;;;;;5031658;28;20733;-81
2021/04/26 00:54:34;;;;;;;0.63;0.63;;;2.90;99.90;;;;;;5034730;28;20229;-83
2021/04/26 00:57:00;;;;;;;0.70;0.70;;;2.60;99.90;;;;;;5035001;28;20262;-81
2021/04/26 00:59:27;;;;;;;1.27;1.23;;;2.60;99.90;;;;;;5051032;28;20537;-81
2021/04/26 01:01:53;;;;;;;0.40;0.40;;;2.60;99.90;;;;;;5074632;28;20552;-83
2021/04/26 01:04:18;;;;;;;0.50;0.50;;;2.60;99.90;;;;;;5054488;28;20686;-82
2021/04/26 01:06:44;;;;;;;0.50;0.50;;;2.60;99.90;;;;;;5021903;28;20769;-83
2021/04/26 01:09:10;;;;;;;0.83;0.83;;;2.60;99.90;;;;;;5053984;28;20234;-84
2021/04/26 01:11:49;;;;;;;0.57;0.57;;;2.50;99.90;;;;;;5053264;28;20244;-81
2021/04/26 01:14:37;;;;;;;3.33;0.83;;;2.50;99.90;;;;;;5051284;28;20243;-81
2021/04/26 01:17:08;;;;;;;0.87;0.60;;;2.50;99.90;;;;;;5072752;28;20184;-81
2021/04/26 01:20:03;;;;;;;0.50;0.50;;;2.50;99.90;;;;;;5073348;28;20229;-81
2021/04/26 01:23:04;;;;;;;1.23;1.00;;;2.50;99.90;;;;;;4991341;28;20226;-81
2021/04/26 01:25:33;;;;;;;1.63;1.63;;;2.50;99.90;;;;;;5052544;28;20216;-82
2021/04/26 01:28:22;;;;;;;10.73;1.40;;;2.50;99.90;;;;;;5053527;28;20245;-81
2021/04/26 01:31:12;;;;;;;3.30;1.33;;;2.40;99.90;;;;;;5053187;28;20229;-83
2021/04/26 01:33:46;;;;;;;0.50;0.50;;;2.40;99.90;;;;;;5051955;28;20224;-82
2021/04/26 01:36:22;;;;;;;1.03;0.70;;;2.40;99.90;;;;;;5070789;28;20214;-83
2021/04/26 01:38:49;;;;;;;1.07;1.07;;;2.20;99.90;;;;;;5054121;28;20227;-84
2021/04/26 01:41:16;;;;;;;0.50;0.50;;;2.20;99.90;;;;;;5033197;28;20184;-82
2021/04/26 01:43:43;;;;;;;0.90;0.63;;;2.30;99.90;;;;;;5038960;28;20190;-83
2021/04/26 01:46:12;;;;;;;3.50;0.87;;;2.30;99.90;;;;;;5035073;28;20251;-82
2021/04/26 01:48:41;;;;;;;1.33;0.87;;;2.40;99.90;;;;;;5053238;28;20213;-83
2021/04/26 01:51:08;;;;;;;0.83;0.83;;;2.40;99.90;;;;;;5052335;28;20318;-83
2021/04/26 01:53:36;;;;;;;0.97;0.97;;;2.30;99.90;;;;;;5050932;28;20223;-82
2021/04/26 01:56:05;;;;;;;0.40;0.40;;;2.30;99.90;;;;;;5073198;28;20196;-82
2021/04/26 01:58:31;;;;;;;1.83;1.77;;;2.20;99.90;;;;;;5069227;28;20228;-83
2021/04/26 02:00:58;;;;;;;1.10;1.10;;;2.30;99.90;;;;;;5035273;28;20220;-83
2021/04/26 02:03:26;;;;;;;0.70;0.70;;;2.30;99.90;;;;;;5036667;28;20217;-82
2021/04/26 02:05:54;;;;;;;4.80;0.80;;;2.40;99.90;;;;;;5069808;28;20239;-82
2021/04/26 02:08:21;;;;;;;0.63;0.60;;;2.30;99.90;;;;;;5070442;28;20216;-82
2021/04/26 02:10:48;;;;;;;1.50;1.40;;;2.20;99.90;;;;;;5052428;28;20221;-82
2021/04/26 02:13:17;;;;;;;0.77;0.73;;;2.20;99.90;;;;;;5049422;28;20228;-83
2021/04/26 02:15:44;;;;;;;1.50;0.73;;;2.20;99.90;;;;;;5049556;28;20262;-84
2021/04/26 02:18:10;;;;;;;0.63;0.63;;;2.20;99.90;;;;;;5046647;28;20945;-82
2021/04/26 02:20:36;;;;;;;1.37;1.00;;;2.20;99.90;;;;;;5013114;28;20267;-82
2021/04/26 02:23:02;;;;;;;0.70;0.70;;;2.20;99.90;;;;;;5034652;28;20268;-82
2021/04/26 02:25:28;;;;;;;0.40;0.40;;;2.10;99.90;;;;;;5066247;28;20216;-83
2021/04/26 02:27:54;;;;;;;1.80;0.93;;;2.10;99.90;;;;;;5050895;28;20229;-82
2021/04/26 02:30:20;;;;;;;0.60;0.60;;;2.00;99.90;;;;;;5020036;28;20221;-83
2021/04/26 02:33:14;;;;;;;0.40;0.40;;;2.00;99.90;;;;;;5050847;28;20219;-83
2021/04/26 02:36:04;;;;;;;0.27;0.27;;;2.00;99.90;;;;;;5051237;28;20216;-83
2021/04/26 02:38:45;;;;;;;5.40;1.13;;;1.90;99.90;;;;;;5054197;28;20209;-83
2021/04/26 02:41:15;;;;;;;0.40;0.40;;;1.90;99.90;;;;;;5070093;28;20184;-82
2021/04/26 02:43:45;;;;;;;0.93;0.93;;;1.80;99.90;;;;;;5034973;28;20591;-83
2021/04/26 02:46:13;;;;;;;1.03;1.03;;;1.90;99.90;;;;;;5066113;28;20212;-84
2021/04/26 02:48:42;;;;;;;0.47;0.47;;;1.90;99.90;;;;;;5048684;28;20304;-82
2021/04/26 02:51:09;;;;;;;0.77;0.77;;;1.80;99.90;;;;;;5071209;28;20240;-81
2021/04/26 02:53:37;;;;;;;1.20;1.17;;;1.80;99.90;;;;;;5036076;28;20220;-82
2021/04/26 02:56:10;;;;;;;1.33;0.80;;;1.90;99.90;;;;;;5071246;28;20196;-82
2021/04/26 02:58:37;;;;;;;0.50;0.50;;;1.90;99.90;;;;;;5068978;28;20212;-83
2021/04/26 03:01:11;;;;;;;0.70;0.70;;;1.90;99.90;;;;;;5052532;28;20578;-82
2021/04/26 03:03:39;;;;;;;7.17;0.83;;;2.00;99.90;;;;;;5050029;28;20255;-82
2021/04/26 03:06:06;;;;;;;1.83;0.80;;;2.10;99.90;;;;;;5069864;28;21134;-83
2021/04/26 03:08:33;;;;;;;0.67;0.63;;;2.00;99.90;;;;;;5069281;28;20224;-81
2021/04/26 03:11:00;;;;;;;0.50;0.50;;;2.10;99.90;;;;;;5051919;28;20783;-83
2021/04/26 03:13:29;;;;;;;0.60;0.60;;;2.10;99.90;;;;;;5050544;28;20305;-82
2021/04/26 03:15:55;;;;;;;1.07;0.97;;;2.00;99.90;;;;;;5035366;28;20274;-81
2021/04/26 03:18:22;;;;;;;0.80;0.80;;;1.90;99.90;;;;;;5051466;28;20212;-83
2021/04/26 03:20:48;;;;;;;4.43;1.30;;;1.90;99.90;;;;;;5034123;28;20232;-83
2021/04/26 03:23:23;;;;;;;10.80;1.67;;;1.90;99.90;;;;;;5035035;28;20292;-83
2021/04/26 03:25:50;;;;;;;0.57;0.57;;;1.90;99.90;;;;;;5054470;28;20195;-82
2021/04/26 03:28:18;;;;;;;0.63;0.57;;;2.00;99.90;;;;;;5052095;28;20256;-84
2021/04/26 03:30:45;;;;;;;0.37;0.37;;;2.00;99.90;;;;;;5035537;28;20350;-81
2021/04/26 03:33:12;;;;;;;0.67;0.67;;;2.00;99.90;;;;;;5051058;28;20785;-82
2021/04/26 03:35:38;;;;;;;5.80;2.50;;;1.90;99.90;;;;;;5054141;28;20221;-81
2021/04/26 03:38:04;;;;;;;1.00;0.70;;;1.80;99.90;;;;;;5036037;28;20228;-82
2021/04/26 03:40:30;;;;;;;0.70;0.70;;;1.90;99.90;;;;;;5037724;28;20310;-83
2021/04/26 03:43:00;;;;;;;0.83;0.83;;;1.80;99.90;;;;;;5039132;28;20741;-81
2021/04/26 03:45:27;;;;;;;1.67;1.57;;;1.80;99.90;;;;;;5056001;28;20231;-80
2021/04/26 03:47:54;;;;;;;2.30;2.20;;;1.70;99.90;;;;;;5056550;28;20244;-83
2021/04/26 03:50:23;;;;;;;3.20;1.80;;;1.80;99.90;;;;;;5073176;28;20200;-83
2021/04/26 03:52:49;;;;;;;0.97;0.97;;;1.80;99.90;;;;;;5052884;28;20245;-83
2021/04/26 03:55:20;;;;;;;0.77;0.77;;;1.80;99.90;;;;;;5068994;28;20214;-83
2021/04/26 03:57:46;;;;;;;2.20;1.53;;;1.70;99.90;;;;;;5052782;28;20226;-80
2021/04/26 04:00:13;;;;;;;0.60;0.60;;;1.70;99.90;;;;;;5052786;28;20212;-82
2021/04/26 04:02:39;;;;;;;1.23;1.20;;;1.80;99.90;;;;;;5035112;28;21029;-83
2021/04/26 04:05:07;;;;;;;0.80;0.80;;;1.80;99.90;;;;;;5052988;28;20178;-80
2021/04/26 04:07:34;;;;;;;1.50;1.00;;;1.70;99.90;;;;;;5049630;28;20726;-80
2021/04/26 04:09:59;;;;;;;0.60;0.60;;;1.70;99.90;;;;;;5034683;28;20229;-83
2021/04/26 04:12:25;;;;;;;10.37;1.23;;;1.70;99.90;;;;;;5050332;28;20222;-80
2021/04/26 04:14:51;;;;;;;9.47;1.20;;;1.80;99.90;;;;;;5035261;28;20217;-81
2021/04/26 04:17:17;;;;;;;0.60;0.60;;;1.80;99.90;;;;;;5033134;28;20210;-81
2021/04/26 04:19:42;;;;;;;1.03;1.03;;;1.80;99.90;;;;;;5019225;28;21172;-83
2021/04/26 04:22:09;;;;;;;0.47;0.47;;;1.80;99.90;;;;;;5051373;28;20217;-84
2021/04/26 04:24:36;;;;;;;0.73;0.73;;;1.80;99.90;;;;;;5050789;28;21458;-82
2021/04/26 04:27:02;;;;;;;0.50;0.50;;;1.80;99.90;;;;;;5044814;28;21170;-81
2021/04/26 04:29:28;;;;;;;9.20;2.93;;;1.90;99.90;;;;;;5034131;28;20669;-83
2021/04/26 04:31:54;;;;;;;3.30;2.00;;;1.80;99.90;;;;;;5034706;28;20277;-82
2021/04/26 04:34:19;;;;;;;2.27;1.27;;;2.00;99.90;;;;;;5050171;28;20221;-81
2021/04/26 04:36:45;;;;;;;1.13;1.00;;;2.10;99.90;;;;;;5032459;28;20787;-81
2021/04/26 04:39:11;;;;;;;0.70;0.67;;;2.20;99.90;;;;;;5048873;28;20228;-82
2021/04/26 04:41:37;;;;;;;2.40;1.30;;;2.30;99.90;;;;;;5066137;28;20741;-83
2021/04/26 04:44:03;;;;;;;0.60;0.60;;;2.30;99.90;;;;;;5033135;28;20183;-83
2021/04/26 04:46:28;;;;;;;1.27;1.17;;;2.50;99.90;;;;;;5050434;28;20325;-85
2021/04/26 04:48:55;;;;;;;0.73;0.73;;;2.70;99.90;;;;;;5053028;28;20597;-84
2021/04/26 04:51:20;;;;;;;0.53;0.53;;;2.70;99.90;;;;;;5032548;28;20252;-82
2021/04/26 04:53:46;;;;;;;1.13;1.03;;;2.90;99.90;;;;;;5046622;28;20225;-82
2021/04/26 04:56:13;;;;;;;1.60;1.07;;;3.00;99.90;;;;;;5035692;28;20189;-81
2021/04/26 04:58:39;;;;;;;0.90;0.90;;;2.90;99.90;;;;;;5052966;28;20223;-81
2021/04/26 05:01:04;;;;;;;7.47;1.30;;;2.90;99.90;;;;;;5016765;28;20632;-83
2021/04/26 05:03:31;;;;;;;0.87;0.87;;;2.90;99.90;;;;;;5013821;28;20217;-84
2021/04/26 05:05:56;;;;;;;2.50;1.27;;;3.00;99.90;;;;;;5012757;28;20980;-86
2021/04/26 05:08:22;;;;;;;1.07;0.97;;;3.10;99.90;;;;;;5032467;28;20196;-86
2021/04/26 05:10:48;;;;;;;6.60;1.33;;;3.20;99.90;;;;;;5032516;28;20564;-86
2021/04/26 05:13:14;;;;;;;0.60;0.60;;;3.20;99.90;;;;;;5050213;28;20716;-86
2021/04/26 05:15:40;;;;;;;1.50;1.40;;;3.40;99.90;;;;;;5033932;28;20224;-86
2021/04/26 05:18:07;;;;;;;4.33;0.90;;;4.40;99.90;;;;;;5052199;28;20567;-84
2021/04/26 05:20:33;;;;;;;0.70;0.70;;;5.90;99.90;;;;;;5044492;28;20224;-84
2021/04/26 05:22:59;;;;;;;2.67;1.13;;;7.30;99.90;;;;;;5067281;28;20182;-85
2021/04/26 05:25:25;;;;;;;0.70;0.70;;;9.90;99.90;;;;;;5049117;28;20223;-85
2021/04/26 05:27:50;;;;;;;1.53;1.43;;;12.30;99.90;;;;;;5049788;28;20559;-85
2021/04/26 05:30:17;;;;;;;1.73;1.30;;;14.10;99.90;;;;;;5017322;28;21178;-84
2021/04/26 05:32:42;;;;;;;1.40;0.87;;;15.80;99.90;;;;;;5035080;28;20799;-87
2021/04/26 05:35:09;;;;;;;0.70;0.70;;;17.60;99.90;;;;;;5016099;28;20198;-85
2021/04/26 05:37:35;;;;;;;23.60;1.27;;;18.80;99.90;;;;;;5051650;28;20197;-84
2021/04/26 05:40:01;;;;;;;6.23;1.20;;;19.20;98.20;;;;;;5031910;28;20222;-84
2021/04/26 05:42:26;;;;;;;1.17;1.13;;;18.80;99.00;;;;;;5049953;28;20221;-85
2021/04/26 05:44:52;;;;;;;4.90;1.17;;;19.50;99.10;;;;;;5032370;28;20229;-86
2021/04/26 05:47:18;;;;;;;1.10;1.03;;;19.20;98.50;;;;;;5032846;28;21076;-85
2021/04/26 05:49:44;;;;;;;5.93;1.10;;;18.60;98.30;;;;;;5053020;28;20210;-82
2021/04/26 05:52:09;;;;;;;2.57;2.40;;;18.70;98.10;;;;;;5032383;28;20303;-82
2021/04/26 05:54:35;;;;;;;3.60;1.00;;;18.50;99.30;;;;;;5065989;28;20221;-82
2021/04/26 05:57:01;;;;;;;1.33;1.17;;;18.80;99.10;;;;;;5052208;28;20214;-83
2021/04/26 05:59:27;;;;;;;1.00;0.73;;;19.40;98.50;;;;;;5045941;28;20352;-83
2021/04/26 06:01:53;;;;;;;2.43;0.97;;;20.10;97.30;;;;;;5033088;28;20643;-82
2021/04/26 06:04:18;;;;;;;4.67;0.90;;;20.40;97.30;;;;;;5044456;28;20632;-83
2021/04/26 06:06:44;;;;;;;1.27;1.20;;;20.60;97.20;;;;;;5047188;28;20710;-84
2021/04/26 06:09:10;;;;;;;3.20;1.00;;;20.70;97.40;;;;;;5013705;28;20726;-81
2021/04/26 06:11:35;;;;;;;4.17;1.20;;;21.30;96.80;;;;;;5030173;28;20221;-85
2021/04/26 06:14:01;;;;;;;5.43;1.20;;;21.70;95.60;;;;;;5032240;28;20643;-84
2021/04/26 06:16:27;;;;;;;2.43;1.17;;;21.80;95.90;;;;;;5050900;28;20585;-84
2021/04/26 06:18:53;;;;;;;0.77;0.77;;;21.60;95.90;;;;;;5016016;28;20213;-84
2021/04/26 06:21:19;;;;;;;1.00;0.90;;;21.80;95.60;;;;;;5026065;28;20225;-84
2021/04/26 06:23:44;;;;;;;1.83;1.50;;;22.30;94.70;;;;;;5025702;28;20230;-86
2021/04/26 06:26:10;;;;;;;0.60;0.60;;;22.30;93.00;;;;;;5026219;28;20194;-82
2021/04/26 06:28:36;;;;;;;1.47;1.03;;;22.10;93.00;;;;;;5048283;28;20188;-85
2021/04/26 06:31:02;;;;;;;2.20;1.20;;;22.80;90.60;;;;;;5025551;28;20248;-85
2021/04/26 06:33:28;;;;;;;2.47;0.70;;;22.80;91.50;;;;;;5044593;28;21091;-86
2021/04/26 06:35:54;;;;;;;1.60;1.33;;;22.20;90.10;;;;;;5030947;28;20221;-86
2021/04/26 06:38:21;;;;;;;1.47;0.97;;;20.70;89.30;;;;;;5050269;28;20796;-85
2021/04/26 06:40:48;;;;;;;1.77;1.13;;;21.40;90.90;;;;;;5050000;28;20255;-86
2021/04/26 06:43:15;;;;;;;1.37;1.17;;;21.00;90.30;;;;;;5030021;28;20213;-83
2021/04/26 06:45:42;;;;;;;3.37;1.00;;;21.50;89.00;;;;;;5031568;28;20218;-85
2021/04/26 06:48:09;;;;;;;0.77;0.73;;;22.30;90.10;;;;;;5061561;28;20742;-86
2021/04/26 06:50:35;;;;;;;4.67;0.83;;;22.50;87.90;;;;;;5046887;28;20230;-86
2021/04/26 06:53:01;;;;;;;1.27;0.83;;;21.60;88.20;;;;;;5031786;28;20225;-84
2021/04/26 06:55:28;;;;;;;2.10;1.07;;;21.50;87.90;;;;;;5026494;28;20225;-85
2021/04/26 06:57:54;;;;;;;2.87;1.33;;;21.20;88.80;;;;;;5029265;28;20295;-85
2021/04/26 07:00:21;;;;;;;0.80;0.80;;;20.70;90.00;;;;;;5045809;28;20226;-86
2021/04/26 07:02:50;;;;;;;1.50;0.73;;;19.00;91.40;;;;;;5028566;28;20247;-86
2021/04/26 07:05:17;;;;;;;2.70;1.07;;;18.20;91.80;;;;;;5029049;28;20771;-85
2021/04/26 07:07:43;;;;;;;1.33;0.70;;;18.80;92.50;;;;;;5034487;28;20199;-85
2021/04/26 07:10:10;;;;;;;2.07;1.10;;;18.70;93.10;;;;;;5015462;28;20221;-86
2021/04/26 07:12:36;;;;;;;0.70;0.70;;;16.60;95.10;;;;;;5032510;28;20213;-86
2021/04/26 07:15:04;;;;;;;2.80;0.83;;;17.50;93.00;;;;;;5033633;28;20264;-86
2021/04/26 07:17:30;;;;;;;1.43;1.33;;;19.30;91.30;;;;;;5036519;28;20276;-85
2021/04/26 07:19:55;;;;;;;1.40;0.87;;;19.60;91.00;;;;;;5020440;28;21031;-85
2021/04/26 07:22:21;;;;;;;1.43;0.97;;;18.80;89.70;;;;;;5034199;28;20802;-86
2021/04/26 07:24:47;;;;;;;1.93;0.90;;;17.00;90.60;;;;;;5017836;28;20291;-85
2021/04/26 07:27:13;;;;;;;1.10;1.00;;;17.90;93.30;;;;;;5033903;28;20685;-85
2021/04/26 07:29:39;;;;;;;1.20;0.87;;;18.80;91.40;;;;;;5028812;28;20825;-82
2021/04/26 07:32:05;;;;;;;0.80;0.70;;;18.60;91.30;;;;;;5052739;28;21043;-84
2021/04/26 07:34:30;;;;;;;1.37;0.90;;;18.90;91.00;;;;;;5035534;28;21068;-84
2021/04/26 07:36:59;;;;;;;2.20;0.87;;;18.70;91.00;;;;;;5033248;28;20237;-84
2021/04/26 07:39:25;;;;;;;1.50;0.93;;;19.00;90.30;;;;;;5052878;28;20226;-85
2021/04/26 07:41:51;;;;;;;1.40;0.70;;;19.60;90.70;;;;;;5050760;28;20274;-84
2021/04/26 07:44:18;;;;;;;1.53;0.90;;;16.90;90.70;;;;;;5050677;28;20222;-85
2021/04/26 07:46:44;;;;;;;2.73;0.90;;;15.40;94.30;;;;;;5021221;28;20202;-82
2021/04/26 07:49:10;;;;;;;1.60;1.07;;;16.60;93.40;;;;;;5051777;28;20336;-83
2021/04/26 07:51:36;;;;;;;0.87;0.80;;;16.60;92.80;;;;;;5059328;28;20300;-83
2021/04/26 07:54:02;;;;;;;0.60;0.60;;;18.50;92.40;;;;;;5021892;28;20216;-81
2021/04/26 07:56:30;;;;;;;1.70;0.80;;;18.90;91.90;;;;;;5037489;28;20335;-82
2021/04/26 07:58:56;;;;;;;0.77;0.77;;;18.90;90.60;;;;;;5056876;28;20185;-87
2021/04/26 08:01:22;;;;;;;1.10;0.80;;;19.10;91.60;;;;;;5023204;28;20278;-87
2021/04/26 08:03:48;;;;;;;1.90;1.03;;;18.90;90.40;;;;;;5056652;28;20242;-82
2021/04/26 08:06:13;;;;;;;2.47;1.47;;;18.10;91.40;;;;;;5038525;28;20221;-84
2021/04/26 08:08:39;;;;;;;3.70;1.23;;;18.30;91.90;;;;;;5021214;28;20224;-84
2021/04/26 08:11:05;;;;;;;0.80;0.80;;;18.30;92.60;;;;;;5056738;28;21268;-84
2021/04/26 08:13:31;;;;;;;2.83;1.20;;;19.10;90.40;;;;;;5038259;28;20220;-83
2021/04/26 08:15:57;;;;;;;0.60;0.60;;;16.00;92.00;;;;;;5037457;28;20213;-86
2021/04/26 08:18:24;;;;;;;4.63;0.70;;;12.20;98.40;;;;;;5072847;28;20744;-84
2021/04/26 08:20:51;;;;;;;3.50;0.90;;;11.20;99.90;;;;;;5038987;28;20339;-83
2021/04/26 08:23:16;;;;;;;0.47;0.47;;;11.50;99.90;;;;;;5054094;28;20308;-83
2021/04/26 08:25:42;;;;;;;0.97;0.97;;;11.50;99.90;;;;;;5039816;28;20260;-84
2021/04/26 08:28:08;;;;;;;0.63;0.63;;;12.30;99.90;;;;;;5054067;28;20730;-85
2021/04/26 08:30:34;;;;;;;1.53;0.80;;;14.10;98.30;;;;;;5071756;28;20233;-83
2021/04/26 08:32:59;;;;;;;3.87;0.50;;;13.60;98.70;;;;;;5053225;28;20213;-82
2021/04/26 08:35:25;;;;;;;1.03;0.60;;;11.40;99.90;;;;;;5034809;28;21375;-84
2021/04/26 08:37:51;;;;;;;3.50;0.70;;;11.40;99.90;;;;;;5021986;28;20182;-82
2021/04/26 08:40:17;;;;;;;1.10;0.97;;;11.10;99.90;;;;;;5053028;28;20233;-84
2021/04/26 08:42:43;;;;;;;0.50;0.50;;;11.30;99.90;;;;;;5022966;28;20258;-84
2021/04/26 08:45:10;;;;;;;0.30;0.30;;;11.80;99.90;;;;;;5034684;28;20242;-85
2021/04/26 08:47:40;;;;;;;4.50;1.30;;;10.00;99.90;;;;;;5052722;28;20227;-86
2021/04/26 08:50:08;;;;;;;2.60;0.80;;;11.00;99.90;;;;;;5056341;28;20216;-86
2021/04/26 08:52:35;;;;;;;1.90;0.47;;;12.80;99.90;;;;;;5070450;28;20335;-84
2021/04/26 08:55:01;;;;;;;0.93;0.83;;;13.00;99.70;;;;;;5068871;28;20217;-84
2021/04/26 08:57:27;;;;;;;2.13;0.40;;;13.50;99.90;;;;;;5039131;28;20267;-84
2021/04/26 08:59:53;;;;;;;0.47;0.47;;;15.30;98.10;;;;;;5039376;28;20568;-84
2021/04/26 09:02:19;;;;;;;2.13;1.10;;;15.10;98.60;;;;;;5037247;28;20255;-84
2021/04/26 09:04:51;;;;;;;3.27;1.10;;;14.10;98.80;;;;;;5056083;28;20198;-83
2021/04/26 09:07:17;;;;;;;2.40;0.83;;;14.50;99.70;;;;;;5053831;28;20258;-84
2021/04/26 09:09:51;;;;;;;1.20;0.90;;;16.40;98.50;;;;;;5053947;28;20243;-83
2021/04/26 09:12:28;;;;;;;1.53;0.73;;;15.30;97.70;;;;;;5051326;28;20702;-84
2021/04/26 09:14:59;;;;;;;1.53;0.90;;;13.60;99.40;;;;;;5071911;28;20299;-85
2021/04/26 09:17:25;;;;;;;1.60;1.10;;;12.20;99.90;;;;;;5050338;28;20185;-84
2021/04/26 09:19:51;;;;;;;1.03;1.03;;;14.00;99.90;;;;;;5055060;28;20249;-83
2021/04/26 09:22:52;;;;;;;1.23;0.97;;;13.90;99.90;;;;;;5053048;28;20236;-84
2021/04/26 09:25:22;;;;;;;3.40;0.53;;;14.30;99.90;;;;;;5051727;28;20278;-85
2021/04/26 09:28:17;;;;;;;0.67;0.60;;;14.70;99.90;;;;;;5072368;28;20224;-85
2021/04/26 09:30:45;;;;;;;2.07;0.90;;;14.70;99.90;;;;;;5069834;28;20274;-82
2021/04/26 09:33:21;;;;;;;1.57;0.90;;;13.30;99.90;;;;;;5056325;28;20307;-82
2021/04/26 09:36:13;;;;;;;1.43;0.80;;;13.10;99.90;;;;;;5054170;28;21151;-83
2021/04/26 09:38:40;;;;;;;0.60;0.60;;;12.20;99.90;;;;;;5054557;28;20216;-83
2021/04/26 09:41:29;;;;;;;0.70;0.70;;;11.10;99.90;;;;;;5055937;28;20203;-85
2021/04/26 09:44:01;;;;;;;3.07;0.80;;;11.50;99.90;;;;;;5061370;28;20225;-85
2021/04/26 09:46:56;;;;;;;2.17;0.73;;;11.40;99.90;;;;;;5065511;28;20213;-83
2021/04/26 09:49:25;;;;;;;0.73;0.60;;;11.20;99.90;;;;;;5028127;28;20237;-88
2021/04/26 09:51:56;;;;;;;0.70;0.70;;;11.30;99.90;;;;;;5070677;28;20244;-85
2021/04/26 09:54:40;;;;;;;0.30;0.30;;;11.10;99.90;;;;;;5052806;28;20220;-83
2021/04/26 09:57:06;;;;;;;1.70;1.03;;;9.90;99.90;;;;;;5036116;28;20205;-82
2021/04/26 09:59:32;;;;;;;1.03;0.80;;;10.30;99.90;;;;;;5070283;28;20778;-82
2021/04/26 10:01:59;;;;;;;2.37;0.80;;;11.00;99.90;;;;;;5053950;28;20181;-81
2021/04/26 10:04:26;;;;;;;1.27;0.83;;;11.20;99.90;;;;;;5036103;28;21007;-83
2021/04/26 10:06:52;;;;;;;0.57;0.57;;;11.60;99.90;;;;;;5033669;28;20286;-82
2021/04/26 10:09:19;;;;;;;0.67;0.57;;;11.80;99.90;;;;;;5052366;28;20240;-82
2021/04/26 10:11:45;;;;;;;0.60;0.60;;;11.20;99.90;;;;;;5034214;28;20220;-81
2021/04/26 10:14:14;;;;;;;4.27;0.53;;;11.20;99.90;;;;;;5051806;28;20189;-82
2021/04/26 10:16:53;;;;;;;2.63;0.50;;;12.60;99.90;;;;;;5054575;28;20189;-84
2021/04/26 10:19:34;;;;;;;3.07;0.70;;;13.40;99.90;;;;;;5068893;28;20304;-82
2021/04/26 10:22:01;;;;;;;1.17;0.67;;;12.90;99.90;;;;;;5051000;28;20224;-85
2021/04/26 10:24:29;;;;;;;0.63;0.37;;;12.10;99.90;;;;;;5037471;28;20217;-82
2021/04/26 10:27:01;;;;;;;0.77;0.63;;;12.10;99.90;;;;;;5054038;28;20220;-82
2021/04/26 10:29:30;;;;;;;2.10;0.80;;;12.80;99.90;;;;;;5072865;28;20217;-83
2021/04/26 10:31:59;;;;;;;1.03;0.70;;;12.30;99.90;;;;;;5071218;28;20284;-85
2021/04/26 10:34:43;;;;;;;0.60;0.57;;;11.40;99.90;;;;;;5051557;28;20252;-83
2021/04/26 10:37:14;;;;;;;0.93;0.40;;;12.30;99.90;;;;;;5050875;28;20217;-81
2021/04/26 10:40:06;;;;;;;4.43;0.70;;;12.50;99.90;;;;;;5049940;28;20694;-83
2021/04/26 10:42:39;;;;;;;1.37;0.57;;;12.00;99.90;;;;;;5053018;28;20225;-85
2021/04/26 10:45:13;;;;;;;0.67;0.60;;;11.10;99.90;;;;;;5052775;28;20839;-84
2021/04/26 10:47:43;;;;;;;0.63;0.63;;;11.50;99.90;;;;;;5053793;28;20803;-81
2021/04/26 10:50:09;;;;;;;2.00;0.57;;;11.80;99.90;;;;;;5054919;28;20224;-89
2021/04/26 10:52:39;;;;;;;1.97;0.87;;;12.40;99.90;;;;;;5058949;28;20232;-86
2021/04/26 10:55:12;;;;;;;2.50;0.80;;;11.80;99.90;;;;;;5058189;28;20307;-86
2021/04/26 10:57:56;;;;;;;0.83;0.50;;;11.20;99.90;;;;;;5056924;28;20805;-87
2021/04/26 11:00:44;;;;;;;1.70;1.13;;;12.20;99.90;;;;;;5074387;28;20229;-87
2021/04/26 11:03:12;;;;;;;1.37;0.77;;;13.10;99.90;;;;;;5058611;28;20209;-88
2021/04/26 11:05:43;;;;;;;1.00;0.50;;;13.10;99.90;;;;;;5055983;28;20725;-87
2021/04/26 11:08:31;;;;;;;1.03;0.80;;;12.80;99.90;;;;;;5040546;28;20642;-88
2021/04/26 11:11:07;;;;;;;1.40;0.37;;;11.80;99.90;;;;;;5052565;28;20224;-88
2021/04/26 11:13:33;;;;;;;2.67;0.90;;;11.60;99.90;;;;;;5058077;28;20224;-88
2021/04/26 11:16:08;;;;;;;0.50;0.50;;;11.70;99.90;;;;;;5076229;28;20224;-87
2021/04/26 11:18:39;;;;;;;2.83;0.60;;;12.10;99.90;;;;;;5058291;28;20216;-87
2021/04/26 11:21:06;;;;;;;1.30;0.60;;;12.10;99.90;;;;;;5054816;28;21223;-87
2021/04/26 11:23:49;;;;;;;2.90;1.10;;;12.30;99.90;;;;;;5039312;28;20233;-88
2021/04/26 11:26:18;;;;;;;0.27;0.27;;;12.70;99.90;;;;;;5023037;28;20203;-88
2021/04/26 11:29:02;;;;;;;0.83;0.70;;;12.50;99.90;;;;;;5056097;28;20283;-88
2021/04/26 11:31:40;;;;;;;0.70;0.70;;;12.40;99.90;;;;;;5073341;28;20267;-86
2021/04/26 11:34:14;;;;;;;1.60;0.60;;;13.50;99.90;;;;;;5051522;28;20278;-88
2021/04/26 11:37:00;;;;;;;1.23;0.73;;;13.50;99.90;;;;;;5053188;28;20270;-88
2021/04/26 11:39:37;;;;;;;0.77;0.40;;;12.60;99.90;;;;;;5058413;28;20228;-87
2021/04/26 11:42:04;;;;;;;0.30;0.30;;;12.10;99.90;;;;;;5057208;28;20216;-86
2021/04/26 11:44:34;;;;;;;3.50;0.70;;;12.00;99.90;;;;;;5056439;28;20263;-86
2021/04/26 11:47:12;;;;;;;0.63;0.47;;;12.00;99.90;;;;;;5073683;28;20324;-85
2021/04/26 11:49:42;;;;;;;0.60;0.60;;;12.50;99.90;;;;;;5056410;28;20260;-86
2021/04/26 11:52:18;;;;;;;0.60;0.53;;;12.00;99.90;;;;;;5074337;28;20248;-88
2021/04/26 11:54:46;;;;;;;0.53;0.50;;;12.00;99.90;;;;;;5052379;28;20285;-87
2021/04/26 11:57:16;;;;;;;0.50;0.50;;;11.80;99.90;;;;;;5050747;28;20231;-86
2021/04/26 11:59:56;;;;;;;0.50;0.40;;;11.70;99.90;;;;;;5051106;28;21303;-87
2021/04/26 12:02:30;;;;;;;0.33;0.33;;;11.20;99.90;;;;;;5070086;28;20189;-87
2021/04/26 12:05:09;;;;;;;1.47;0.77;;;11.20;99.90;;;;;;5054048;28;20177;-87
2021/04/26 12:07:35;;;;;;;0.73;0.50;;;11.40;99.90;;;;;;5053805;28;20229;-89
2021/04/26 12:10:05;;;;;;;2.10;0.50;;;11.50;99.90;;;;;;5052924;28;20221;-86
2021/04/26 12:12:33;;;;;;;0.40;0.40;;;11.30;99.90;;;;;;5073143;28;20268;-85
2021/04/26 12:15:01;;;;;;;0.87;0.40;;;11.10;99.90;;;;;;5055037;28;20208;-85
2021/04/26 12:17:34;;;;;;;0.40;0.40;;;10.90;99.90;;;;;;5054795;28;20280;-86
2021/04/26 12:20:07;;;;;;;1.60;0.60;;;10.90;99.90;;;;;;5057417;28;20177;-86
2021/04/26 12:22:35;;;;;;;1.53;0.40;;;11.20;99.90;;;;;;5040070;28;20764;-86
2021/04/26 12:25:05;;;;;;;1.23;0.97;;;11.00;99.90;;;;;;5074084;28;20275;-86
2021/04/26 12:27:32;;;;;;;1.23;0.70;;;11.20;99.90;;;;;;5052750;28;20219;-86
2021/04/26 12:30:10;;;;;;;0.50;0.50;;;11.30;99.90;;;;;;5038176;28;20233;-89
2021/04/26 12:32:36;;;;;;;0.60;0.60;;;11.30;99.90;;;;;;5056550;28;20789;-85
2021/04/26 12:35:04;;;;;;;0.60;0.40;;;11.50;99.90;;;;;;5040181;28;20227;-84
2021/04/26 12:37:41;;;;;;;0.87;0.80;;;11.40;99.90;;;;;;5070347;28;20217;-85
2021/04/26 12:40:14;;;;;;;2.47;0.60;;;11.00;99.90;;;;;;5056883;28;20216;-87
2021/04/26 12:42:42;;;;;;;1.47;0.73;;;10.70;99.90;;;;;;5054284;28;20225;-88
2021/04/26 12:45:13;;;;;;;3.40;0.70;;;10.80;99.90;;;;;;5070581;28;20297;-87
2021/04/26 12:47:59;;;;;;;0.60;0.60;;;10.90;99.90;;;;;;5050778;28;20245;-82
2021/04/26 12:50:37;;;;;;;0.50;0.50;;;11.20;99.90;;;;;;5052006;28;20201;-80
2021/04/26 12:53:14;;;;;;;1.10;0.70;;;11.30;99.90;;;;;;5051982;28;20221;-81
2021/04/26 12:55:47;;;;;;;1.13;0.73;;;11.40;99.90;;;;;;5053650;28;20228;-81
2021/04/26 12:58:19;;;;;;;3.60;0.53;;;11.30;99.90;;;;;;5055504;28;20290;-81
2021/04/26 13:01:14;;;;;;;0.60;0.60;;;11.20;99.90;;;;;;5050544;28;20217;-81